Eugene, Oregon
Current Conditions -  °F | °C
As of 11:54 PM on Friday 24 Oct 2014 (Local Time) from KEUG Reporting Station
Haze Haze  
Wind Chill: 51°   Ceiling: 200
Heat Index: 51°   Visibility: 0.5mi
Dew Point: 50°   Wind: 5mph
Humidity: 96%   Direction: 360°N
Pressure: 29.67"   Gusts: NA
Location:  44.05°N, 123.08°W
Report Text: KEUG 250654Z 36004KT 1/2SM R16R/P6000FT BR OVC002 11/10 A2967 RMK AO2 SFC VIS 2 SLP047 T01060100
Loading
Personal Weather Stations






























Interactive Weather Map
Tropical Storm Tracking
New forecast layout! Learn more

10-Day Weather Forecast

Advertisements
Track Severe Weather on mobile